Time;durP1;ratioP1;P1;durP2;ratioP2;P2;SDS_P1;SDS_P2;PMS_P1;PMS_P2;Temp;Humidity;BMP_temperature;BMP_pressure;BME280_temperature;BME280_humidity;BME280_pressure;Samples;Min_cycle;Max_cycle;Signal;HPM_P1;HPM_P2
2021/07/15 00:00:38;;;;;;;0.50;0.30;;;16.60;99.90;;;;;;5014446;28;20505;-68
2021/07/15 00:03:08;;;;;;;3.08;0.57;;;16.60;99.90;;;;;;5029903;28;20125;-68
2021/07/15 00:05:37;;;;;;;0.50;0.30;;;16.50;99.90;;;;;;4997269;28;20037;-68
2021/07/15 00:08:03;;;;;;;2.47;0.65;;;16.50;99.90;;;;;;5014139;28;20391;-68
2021/07/15 00:10:37;;;;;;;0.68;0.30;;;16.50;99.90;;;;;;5013194;28;20037;-68
2021/07/15 00:13:06;;;;;;;1.40;0.50;;;16.40;99.90;;;;;;5014042;28;20053;-68
2021/07/15 00:15:37;;;;;;;0.60;0.40;;;16.30;99.90;;;;;;5012947;28;20034;-68
2021/07/15 00:18:06;;;;;;;0.65;0.40;;;16.30;99.90;;;;;;5014042;28;20406;-68
2021/07/15 00:20:37;;;;;;;0.98;0.40;;;16.30;99.90;;;;;;5014279;28;20030;-68
2021/07/15 00:23:04;;;;;;;0.82;0.40;;;16.30;99.90;;;;;;5012854;28;20087;-69
2021/07/15 00:25:30;;;;;;;1.33;0.70;;;16.30;99.90;;;;;;4996519;28;20529;-68
2021/07/15 00:27:55;;;;;;;1.05;0.55;;;16.30;99.90;;;;;;5029372;28;20081;-69
2021/07/15 00:30:21;;;;;;;2.30;0.75;;;16.30;99.90;;;;;;5013619;28;20524;-69
2021/07/15 00:32:47;;;;;;;4.50;1.02;;;16.30;99.90;;;;;;5013721;28;20032;-69
2021/07/15 00:35:14;;;;;;;2.55;0.95;;;16.30;99.90;;;;;;5013981;28;20493;-69
2021/07/15 00:37:42;;;;;;;2.72;1.45;;;16.30;99.90;;;;;;5012546;28;20490;-69
2021/07/15 00:40:12;;;;;;;2.85;1.30;;;16.30;99.90;;;;;;5013679;28;20037;-68
2021/07/15 00:42:38;;;;;;;3.85;1.42;;;16.20;99.90;;;;;;5012456;28;20057;-69
2021/07/15 00:45:09;;;;;;;4.95;1.75;;;16.20;99.90;;;;;;5012566;28;20021;-68
2021/07/15 00:47:35;;;;;;;2.67;1.67;;;16.20;99.90;;;;;;5013440;28;20041;-68
2021/07/15 00:50:03;;;;;;;4.57;1.73;;;16.10;99.90;;;;;;5012115;28;20026;-69
2021/07/15 00:52:29;;;;;;;3.10;1.77;;;16.10;99.90;;;;;;5013255;28;20092;-68
2021/07/15 00:54:56;;;;;;;4.78;1.85;;;16.00;99.90;;;;;;5012086;28;20038;-69
2021/07/15 00:57:21;;;;;;;4.97;1.83;;;16.10;99.90;;;;;;5013409;28;20080;-68
2021/07/15 00:59:50;;;;;;;6.13;1.80;;;16.00;99.90;;;;;;5012190;28;20053;-68
2021/07/15 01:02:16;;;;;;;6.00;2.03;;;16.00;99.90;;;;;;5012442;28;20044;-69
2021/07/15 01:04:42;;;;;;;3.55;1.70;;;16.00;99.90;;;;;;5013401;28;20030;-69
2021/07/15 01:07:08;;;;;;;5.43;2.17;;;16.10;99.90;;;;;;5013206;28;20040;-68
2021/07/15 01:09:34;;;;;;;3.63;1.70;;;16.10;99.90;;;;;;5013265;28;20030;-69
2021/07/15 01:12:37;;;;;;;3.75;1.38;;;16.10;99.90;;;;;;5011628;28;20136;-69
2021/07/15 01:15:23;;;;;;;2.60;1.38;;;16.10;99.90;;;;;;5011855;28;20048;-69
2021/07/15 01:18:18;;;;;;;2.50;1.30;;;16.00;99.90;;;;;;5011719;28;20048;-68
2021/07/15 01:21:12;;;;;;;2.22;1.30;;;16.10;99.90;;;;;;5011584;28;20506;-69
2021/07/15 01:24:32;;;;;;;2.80;1.13;;;16.10;99.90;;;;;;5020658;28;20041;-69
2021/07/15 01:27:36;;;;;;;4.10;1.17;;;16.10;99.90;;;;;;5011806;28;20037;-68
2021/07/15 01:30:25;;;;;;;5.32;1.20;;;16.00;99.90;;;;;;5010308;28;20045;-68
2021/07/15 01:33:15;;;;;;;3.25;1.25;;;16.00;99.90;;;;;;5011651;28;20129;-69
2021/07/15 01:36:13;;;;;;;4.10;1.25;;;15.90;99.90;;;;;;5012687;28;20030;-69
2021/07/15 01:38:47;;;;;;;1.80;1.23;;;15.90;99.90;;;;;;5011052;28;20042;-69
2021/07/15 01:41:45;;;;;;;2.67;1.20;;;15.90;99.90;;;;;;5011456;28;20424;-69
2021/07/15 01:44:27;;;;;;;1.88;1.15;;;15.90;99.90;;;;;;5012682;28;20529;-69
2021/07/15 01:46:53;;;;;;;3.40;1.15;;;15.90;99.90;;;;;;5011280;28;20168;-68
2021/07/15 01:49:20;;;;;;;2.28;1.00;;;15.90;99.90;;;;;;5011426;28;20034;-69
2021/07/15 01:51:47;;;;;;;2.63;1.15;;;15.90;99.90;;;;;;4994732;28;20358;-69
2021/07/15 01:54:14;;;;;;;1.30;0.90;;;15.90;99.90;;;;;;5011516;28;20026;-69
2021/07/15 01:56:42;;;;;;;3.65;1.27;;;15.90;99.90;;;;;;5011467;28;20033;-69
2021/07/15 01:59:17;;;;;;;2.92;0.98;;;15.90;99.90;;;;;;4994735;28;20388;-69
2021/07/15 02:01:46;;;;;;;2.22;0.95;;;15.90;99.90;;;;;;5011039;28;20032;-69
2021/07/15 02:04:14;;;;;;;5.90;1.20;;;15.90;99.90;;;;;;5011486;28;20041;-69
2021/07/15 02:06:45;;;;;;;1.50;1.00;;;15.80;99.90;;;;;;5011106;28;20026;-69
2021/07/15 02:09:13;;;;;;;2.25;1.20;;;15.80;99.90;;;;;;5027918;28;20026;-69
2021/07/15 02:11:41;;;;;;;2.35;1.50;;;15.80;99.90;;;;;;5012128;28;20069;-69
2021/07/15 02:14:11;;;;;;;4.05;1.55;;;15.70;99.90;;;;;;5011102;28;20038;-68
2021/07/15 02:16:42;;;;;;;4.28;1.35;;;15.70;99.90;;;;;;5011017;28;20041;-69
2021/07/15 02:19:09;;;;;;;2.55;1.45;;;15.70;99.90;;;;;;5012162;28;20487;-70
2021/07/15 02:21:36;;;;;;;3.50;1.02;;;15.80;99.90;;;;;;5011252;28;20073;-70
2021/07/15 02:24:05;;;;;;;2.75;1.40;;;15.80;99.90;;;;;;5011186;28;20100;-68
2021/07/15 02:26:33;;;;;;;2.70;1.40;;;15.90;99.90;;;;;;5011221;28;20036;-69
2021/07/15 02:29:00;;;;;;;2.13;1.08;;;15.80;99.90;;;;;;5012054;28;20049;-69
2021/07/15 02:31:58;;;;;;;2.97;0.90;;;15.80;99.90;;;;;;5012065;28;20113;-69
2021/07/15 02:34:33;;;;;;;2.50;1.17;;;15.80;99.90;;;;;;5024699;28;20432;-69
2021/07/15 02:37:00;;;;;;;5.07;1.52;;;15.80;99.90;;;;;;5010788;28;20034;-69
2021/07/15 02:39:27;;;;;;;3.88;1.55;;;15.90;99.90;;;;;;5010797;28;20036;-69
2021/07/15 02:41:53;;;;;;;3.80;1.50;;;15.80;99.90;;;;;;5010578;28;20506;-70
2021/07/15 02:44:18;;;;;;;2.63;1.63;;;15.80;99.90;;;;;;5012307;28;20033;-70
2021/07/15 02:46:44;;;;;;;4.57;1.52;;;15.80;99.90;;;;;;5010975;28;20041;-69
2021/07/15 02:49:10;;;;;;;1.98;1.30;;;15.80;99.90;;;;;;5012062;28;20030;-70
2021/07/15 02:51:36;;;;;;;2.08;1.20;;;15.80;99.90;;;;;;5010704;28;20049;-69
2021/07/15 02:54:02;;;;;;;2.67;1.30;;;15.80;99.90;;;;;;5011724;28;20041;-69
2021/07/15 02:56:39;;;;;;;3.95;1.25;;;15.70;99.90;;;;;;5010811;28;20026;-70
2021/07/15 02:59:26;;;;;;;5.93;1.33;;;15.80;99.90;;;;;;5011002;28;20026;-69
2021/07/15 03:02:28;;;;;;;2.95;1.20;;;15.70;99.90;;;;;;5010623;28;20036;-70
2021/07/15 03:05:27;;;;;;;3.47;1.40;;;15.70;99.90;;;;;;5011788;28;20042;-69
2021/07/15 03:08:09;;;;;;;3.08;1.60;;;15.60;99.90;;;;;;5006675;28;20046;-69
2021/07/15 03:10:35;;;;;;;2.00;1.30;;;15.60;99.90;;;;;;5010951;28;20046;-69
2021/07/15 03:13:11;;;;;;;5.82;1.85;;;15.60;99.90;;;;;;5010256;28;20042;-69
2021/07/15 03:15:41;;;;;;;2.10;1.40;;;15.60;99.90;;;;;;4997261;28;20065;-69
2021/07/15 03:18:08;;;;;;;3.97;1.77;;;15.60;99.90;;;;;;5014175;28;20057;-68
2021/07/15 03:20:41;;;;;;;1.92;1.40;;;15.60;99.90;;;;;;5014284;28;20483;-68
2021/07/15 03:23:16;;;;;;;2.75;1.40;;;15.60;99.90;;;;;;5015316;28;20041;-69
2021/07/15 03:25:49;;;;;;;3.92;1.50;;;15.60;99.90;;;;;;5014097;28;20486;-69
2021/07/15 03:28:18;;;;;;;3.75;1.40;;;15.60;99.90;;;;;;5013923;28;20060;-70
2021/07/15 03:30:45;;;;;;;2.50;1.55;;;15.60;99.90;;;;;;5013779;28;20038;-69
2021/07/15 03:33:15;;;;;;;6.18;2.28;;;15.60;99.90;;;;;;5013633;28;20036;-69
2021/07/15 03:35:42;;;;;;;3.47;1.50;;;15.60;99.90;;;;;;5014055;28;20387;-69
2021/07/15 03:38:10;;;;;;;4.80;1.50;;;15.60;99.90;;;;;;5014779;28;20525;-69
2021/07/15 03:40:36;;;;;;;2.30;1.50;;;15.60;99.90;;;;;;5013680;28;20038;-69
2021/07/15 03:43:02;;;;;;;3.00;1.70;;;15.60;99.90;;;;;;5014996;28;20052;-69
2021/07/15 03:45:29;;;;;;;4.20;1.77;;;15.60;99.90;;;;;;4997259;28;20030;-70
2021/07/15 03:47:57;;;;;;;2.53;1.50;;;15.60;99.90;;;;;;5014686;28;20054;-70
2021/07/15 03:50:27;;;;;;;3.22;2.22;;;15.60;99.90;;;;;;5013714;28;20033;-69
2021/07/15 03:52:56;;;;;;;4.70;1.90;;;15.50;99.90;;;;;;5013645;28;20121;-69
2021/07/15 03:55:27;;;;;;;5.28;1.88;;;15.60;99.90;;;;;;5014830;28;20405;-70
2021/07/15 03:57:55;;;;;;;6.43;1.90;;;15.60;99.90;;;;;;5014663;28;20041;-69
2021/07/15 04:00:24;;;;;;;3.60;1.70;;;15.60;99.90;;;;;;5013315;28;20022;-69
2021/07/15 04:03:00;;;;;;;6.80;1.92;;;15.60;99.90;;;;;;5013028;28;20375;-69
2021/07/15 04:05:29;;;;;;;4.25;1.98;;;15.60;99.90;;;;;;5013244;28;20065;-70
2021/07/15 04:07:59;;;;;;;5.43;2.22;;;15.60;99.90;;;;;;5014452;28;20033;-70
2021/07/15 04:10:28;;;;;;;6.40;1.98;;;15.60;99.90;;;;;;5012994;28;20338;-69
2021/07/15 04:12:57;;;;;;;3.28;1.85;;;15.60;99.90;;;;;;4996770;28;20057;-70
2021/07/15 04:15:52;;;;;;;3.20;1.80;;;15.60;99.90;;;;;;5014156;28;20116;-69
2021/07/15 04:18:21;;;;;;;3.15;2.17;;;15.60;99.90;;;;;;5013422;28;20029;-69
2021/07/15 04:20:47;;;;;;;4.10;2.17;;;15.60;99.90;;;;;;5012939;28;20085;-69
2021/07/15 04:23:15;;;;;;;4.43;1.73;;;15.60;99.90;;;;;;5014108;28;20034;-69
2021/07/15 04:25:43;;;;;;;4.15;1.75;;;15.60;99.90;;;;;;5012109;28;20134;-70
2021/07/15 04:28:10;;;;;;;1.92;1.30;;;15.70;99.90;;;;;;5014050;28;20061;-69
2021/07/15 04:30:36;;;;;;;1.83;1.10;;;15.70;99.90;;;;;;5012681;28;20030;-69
2021/07/15 04:33:10;;;;;;;3.00;1.52;;;15.70;99.90;;;;;;5013996;28;20033;-69
2021/07/15 04:35:37;;;;;;;8.48;1.35;;;15.70;99.90;;;;;;5012704;28;20514;-69
2021/07/15 04:38:04;;;;;;;3.95;1.10;;;15.70;99.90;;;;;;5012687;28;20037;-69
2021/07/15 04:40:32;;;;;;;3.42;1.20;;;15.70;99.90;;;;;;5013723;28;20036;-69
2021/07/15 04:43:06;;;;;;;6.35;1.55;;;15.70;99.90;;;;;;5013895;28;20056;-69
2021/07/15 04:45:36;;;;;;;2.30;1.25;;;15.70;99.90;;;;;;5013570;28;20490;-69
2021/07/15 04:48:02;;;;;;;3.90;1.17;;;15.70;99.90;;;;;;5012533;28;20045;-70
2021/07/15 04:50:33;;;;;;;3.60;1.38;;;15.70;99.90;;;;;;5012417;28;20045;-69
2021/07/15 04:53:14;;;;;;;2.43;1.10;;;15.70;99.90;;;;;;5013740;28;20137;-69
2021/07/15 04:55:41;;;;;;;6.68;1.40;;;15.80;99.90;;;;;;5012386;28;20034;-69
2021/07/15 04:58:08;;;;;;;4.78;1.05;;;15.80;99.90;;;;;;5012212;28;20038;-69
2021/07/15 05:00:37;;;;;;;4.20;1.60;;;15.90;99.90;;;;;;5012087;28;20037;-69
2021/07/15 05:03:30;;;;;;;2.17;0.90;;;16.00;99.90;;;;;;5013207;28;20586;-69
2021/07/15 05:05:57;;;;;;;2.80;1.45;;;16.00;99.90;;;;;;5011796;28;20652;-69
2021/07/15 05:08:23;;;;;;;4.00;1.50;;;16.00;99.90;;;;;;5011932;28;20442;-69
2021/07/15 05:10:49;;;;;;;2.42;1.13;;;16.00;99.90;;;;;;5012162;28;20088;-69
2021/07/15 05:13:15;;;;;;;2.55;1.10;;;16.00;99.90;;;;;;5028106;28;20058;-70
2021/07/15 05:15:41;;;;;;;4.90;1.10;;;16.00;99.90;;;;;;5012030;28;20037;-70
2021/07/15 05:18:07;;;;;;;2.08;1.27;;;16.00;99.90;;;;;;4995481;28;20041;-69
2021/07/15 05:20:33;;;;;;;2.15;1.15;;;16.00;99.90;;;;;;5013185;28;20518;-70
2021/07/15 05:22:59;;;;;;;7.28;1.25;;;16.00;99.90;;;;;;5011743;28;20034;-70
2021/07/15 05:25:25;;;;;;;1.50;1.02;;;16.00;99.90;;;;;;5012017;28;20067;-69
2021/07/15 05:27:50;;;;;;;2.42;1.10;;;16.10;99.90;;;;;;5012787;28;20479;-69
2021/07/15 05:30:17;;;;;;;4.72;1.23;;;16.10;99.90;;;;;;5027887;28;20066;-70
2021/07/15 05:32:43;;;;;;;1.75;1.15;;;16.10;99.90;;;;;;5013126;28;20030;-70
2021/07/15 05:35:10;;;;;;;2.03;1.40;;;16.10;99.90;;;;;;5011567;28;20053;-71
2021/07/15 05:37:36;;;;;;;2.60;1.23;;;16.10;99.90;;;;;;5012281;28;20623;-70
2021/07/15 05:40:04;;;;;;;3.13;1.33;;;16.20;99.90;;;;;;5012692;28;20037;-70
2021/07/15 05:42:29;;;;;;;4.32;1.73;;;16.20;99.90;;;;;;5011700;28;20034;-70
2021/07/15 05:44:55;;;;;;;5.25;1.52;;;16.30;99.90;;;;;;5012452;28;20830;-70
2021/07/15 05:47:21;;;;;;;10.48;2.13;;;16.30;99.90;;;;;;5011025;28;20064;-70
2021/07/15 05:49:47;;;;;;;1.70;0.93;;;16.50;99.90;;;;;;5011421;28;20032;-70
2021/07/15 05:52:13;;;;;;;2.30;1.02;;;16.60;99.90;;;;;;5011134;28;20037;-70
2021/07/15 05:54:40;;;;;;;1.33;1.10;;;16.60;99.90;;;;;;5012748;28;20041;-70
2021/07/15 05:57:06;;;;;;;1.52;1.08;;;16.60;99.90;;;;;;5012199;28;20038;-70
2021/07/15 05:59:35;;;;;;;1.98;1.00;;;16.70;99.90;;;;;;5011209;28;20025;-70
2021/07/15 06:02:01;;;;;;;0.82;0.63;;;16.80;99.90;;;;;;5011076;28;20044;-70
2021/07/15 06:04:27;;;;;;;1.73;0.80;;;16.80;99.90;;;;;;5012704;28;20038;-70
2021/07/15 06:06:53;;;;;;;1.48;0.82;;;16.80;99.90;;;;;;5012354;28;20030;-70
2021/07/15 06:09:19;;;;;;;1.50;0.88;;;16.90;99.90;;;;;;5012213;28;20510;-69
2021/07/15 06:11:45;;;;;;;1.33;0.80;;;16.80;99.90;;;;;;5012357;28;20080;-69
2021/07/15 06:14:11;;;;;;;1.90;0.85;;;16.70;99.90;;;;;;5012231;28;20030;-69
2021/07/15 06:16:37;;;;;;;1.70;1.00;;;16.60;99.90;;;;;;5012453;28;20030;-69
2021/07/15 06:19:03;;;;;;;1.70;1.05;;;16.60;99.90;;;;;;5012376;28;20040;-69
2021/07/15 06:21:30;;;;;;;1.30;0.90;;;16.60;99.90;;;;;;5011262;28;20120;-69
2021/07/15 06:23:56;;;;;;;1.58;0.73;;;16.60;99.90;;;;;;5010900;28;20038;-69
2021/07/15 06:26:22;;;;;;;1.42;0.90;;;16.60;99.90;;;;;;5027228;28;20415;-69
2021/07/15 06:28:48;;;;;;;1.17;0.77;;;16.50;99.90;;;;;;5010889;28;20045;-69
2021/07/15 06:31:14;;;;;;;1.25;0.65;;;16.50;99.90;;;;;;5012044;28;20030;-70
2021/07/15 06:33:40;;;;;;;2.53;0.95;;;16.50;99.90;;;;;;5010840;28;20045;-69
2021/07/15 06:36:09;;;;;;;1.00;0.80;;;16.60;99.90;;;;;;5011739;28;20034;-69
2021/07/15 06:38:38;;;;;;;2.20;1.00;;;16.70;99.90;;;;;;5012128;28;20045;-69
2021/07/15 06:41:09;;;;;;;1.05;0.77;;;16.90;99.90;;;;;;5010888;28;20037;-70
2021/07/15 06:43:37;;;;;;;1.25;0.70;;;17.00;99.90;;;;;;5011107;28;20141;-69
2021/07/15 06:46:03;;;;;;;2.35;0.88;;;17.10;99.90;;;;;;5010642;28;20125;-69
2021/07/15 06:48:29;;;;;;;1.52;1.08;;;17.00;99.90;;;;;;5011001;28;20110;-69
2021/07/15 06:50:56;;;;;;;1.48;0.90;;;17.20;99.90;;;;;;5015689;28;20462;-69
2021/07/15 06:53:23;;;;;;;1.80;0.88;;;17.20;99.90;;;;;;5015664;28;20038;-70
2021/07/15 06:55:48;;;;;;;0.75;0.52;;;17.30;99.90;;;;;;5015705;28;20554;-69
2021/07/15 06:58:14;;;;;;;1.33;0.60;;;17.50;99.90;;;;;;5015289;28;20030;-69
2021/07/15 07:00:40;;;;;;;1.30;0.85;;;17.60;99.90;;;;;;5015684;28;20324;-68
2021/07/15 07:03:06;;;;;;;2.72;0.90;;;17.70;99.90;;;;;;5014457;28;20045;-69
2021/07/15 07:05:32;;;;;;;1.75;1.02;;;17.80;99.90;;;;;;5014346;28;20041;-68
2021/07/15 07:07:58;;;;;;;8.82;2.05;;;17.70;99.90;;;;;;5014472;28;20042;-68
2021/07/15 07:10:24;;;;;;;1.08;0.80;;;17.80;99.90;;;;;;5015157;28;20497;-68
2021/07/15 07:12:50;;;;;;;0.88;0.68;;;17.70;99.90;;;;;;5015183;28;20057;-68
2021/07/15 07:15:18;;;;;;;1.77;0.95;;;17.70;99.90;;;;;;5015380;28;20033;-69
2021/07/15 07:17:45;;;;;;;2.25;1.40;;;17.50;99.90;;;;;;5020973;28;20537;-73
2021/07/15 07:20:14;;;;;;;4.28;1.10;;;17.30;99.90;;;;;;5021562;28;20030;-70
2021/07/15 07:22:41;;;;;;;1.52;0.98;;;17.20;99.90;;;;;;5016027;28;20044;-72
2021/07/15 07:25:09;;;;;;;1.42;0.80;;;17.40;99.90;;;;;;5034762;28;20052;-70
2021/07/15 07:27:35;;;;;;;0.95;0.70;;;17.60;99.90;;;;;;5025278;28;20044;-69
2021/07/15 07:30:02;;;;;;;4.57;1.40;;;17.40;99.90;;;;;;5033643;28;20033;-75
2021/07/15 07:32:27;;;;;;;2.25;1.45;;;17.50;99.90;;;;;;5022234;28;20483;-75
2021/07/15 07:34:53;;;;;;;4.40;1.80;;;17.60;99.90;;;;;;5013762;28;20121;-75
2021/07/15 07:37:19;;;;;;;1.75;1.23;;;17.70;99.90;;;;;;5014701;28;20040;-75
2021/07/15 07:39:45;;;;;;;2.33;1.35;;;17.90;99.90;;;;;;5012944;28;20394;-74
2021/07/15 07:42:12;;;;;;;3.38;1.60;;;18.20;99.90;;;;;;5013824;28;20040;-74
2021/07/15 07:44:37;;;;;;;2.45;1.60;;;18.40;99.90;;;;;;5015017;28;20026;-74
2021/07/15 07:47:03;;;;;;;2.47;1.35;;;18.70;99.90;;;;;;4997419;28;20442;-74
2021/07/15 07:49:29;;;;;;;2.17;1.23;;;19.00;99.90;;;;;;5014436;28;20021;-73
2021/07/15 07:51:55;;;;;;;2.15;1.00;;;18.90;99.90;;;;;;5014675;28;20071;-73
2021/07/15 07:54:21;;;;;;;1.52;0.95;;;18.90;99.90;;;;;;5015075;28;20513;-73
2021/07/15 07:56:47;;;;;;;2.15;0.90;;;18.80;99.90;;;;;;5014371;28;20036;-74
2021/07/15 07:59:13;;;;;;;1.73;0.98;;;18.80;99.90;;;;;;4996842;28;20125;-73
2021/07/15 08:01:39;;;;;;;2.53;0.68;;;18.80;99.90;;;;;;5014507;28;20026;-74
2021/07/15 08:04:06;;;;;;;2.75;1.13;;;18.50;99.90;;;;;;5014488;28;20124;-74
2021/07/15 08:06:37;;;;;;;1.80;1.08;;;18.70;99.90;;;;;;5013035;28;20069;-74
2021/07/15 08:09:09;;;;;;;2.75;1.40;;;19.00;99.90;;;;;;5014354;28;20478;-74
2021/07/15 08:11:36;;;;;;;2.75;0.98;;;18.50;99.90;;;;;;5014102;28;20499;-74
2021/07/15 08:14:04;;;;;;;2.42;1.45;;;18.50;99.90;;;;;;5013092;28;20030;-74
2021/07/15 08:16:29;;;;;;;4.53;1.30;;;18.70;99.90;;;;;;5013021;28;20026;-74
2021/07/15 08:18:55;;;;;;;2.03;1.17;;;18.90;99.90;;;;;;5014042;28;20051;-75
2021/07/15 08:21:24;;;;;;;2.17;1.42;;;19.30;99.90;;;;;;5013967;28;20391;-74
2021/07/15 08:23:51;;;;;;;4.47;1.48;;;19.50;99.90;;;;;;5013156;28;20121;-75
2021/07/15 08:26:17;;;;;;;1.88;1.10;;;19.50;99.90;;;;;;5012491;28;20372;-74
2021/07/15 08:28:44;;;;;;;1.83;1.20;;;19.60;99.90;;;;;;5013962;28;20033;-73
2021/07/15 08:31:10;;;;;;;2.05;1.40;;;19.60;99.90;;;;;;5012836;28;20556;-74
2021/07/15 08:33:35;;;;;;;1.83;1.30;;;19.50;99.90;;;;;;5029181;28;20042;-74
2021/07/15 08:36:02;;;;;;;2.00;1.50;;;19.20;99.90;;;;;;5014038;28;20467;-74
2021/07/15 08:38:28;;;;;;;2.50;1.27;;;19.20;99.90;;;;;;5012163;28;20124;-74
2021/07/15 08:40:54;;;;;;;1.70;1.23;;;19.50;99.90;;;;;;5013988;28;20503;-74
2021/07/15 08:43:20;;;;;;;2.33;1.60;;;19.70;99.90;;;;;;5012526;28;20475;-74
2021/07/15 08:45:46;;;;;;;2.22;1.27;;;19.70;99.90;;;;;;5012280;28;20033;-75
2021/07/15 08:48:12;;;;;;;3.88;1.40;;;19.60;99.90;;;;;;5012611;28;20030;-75
2021/07/15 08:50:41;;;;;;;3.90;1.65;;;19.90;99.90;;;;;;5012583;28;20040;-75
2021/07/15 08:53:07;;;;;;;3.17;1.52;;;19.80;99.90;;;;;;5012279;28;20030;-74
2021/07/15 08:58:20;;;;;;;1.35;1.10;;;19.30;99.90;;;;;;5012125;28;20033;-74
2021/07/15 09:00:48;;;;;;;2.10;1.20;;;19.40;99.90;;;;;;5013670;28;20061;-75
2021/07/15 09:03:14;;;;;;;1.40;1.00;;;19.50;99.90;;;;;;5012296;28;20045;-75
2021/07/15 09:05:42;;;;;;;2.17;1.00;;;19.60;99.90;;;;;;5013559;28;20047;-75
2021/07/15 09:08:08;;;;;;;2.65;1.30;;;19.90;99.90;;;;;;5013195;28;20026;-74
2021/07/15 09:10:34;;;;;;;1.27;0.80;;;20.10;99.90;;;;;;5013411;28;20041;-75
2021/07/15 09:13:01;;;;;;;2.13;1.10;;;20.20;99.90;;;;;;5011180;28;20046;-74
2021/07/15 09:15:27;;;;;;;3.15;1.60;;;19.90;99.90;;;;;;5012894;28;20390;-75
2021/07/15 09:17:53;;;;;;;2.05;1.10;;;19.90;99.90;;;;;;5013287;28;20033;-75
2021/07/15 09:20:25;;;;;;;2.40;1.40;;;20.30;99.90;;;;;;5028068;28;20025;-74
2021/07/15 09:23:10;;;;;;;12.73;4.15;;;19.90;99.90;;;;;;5011836;28;20041;-75
2021/07/15 09:25:41;;;;;;;4.95;0.93;;;20.00;99.90;;;;;;5013031;28;20511;-75
2021/07/15 09:28:14;;;;;;;1.92;1.15;;;20.40;99.90;;;;;;5013042;28;20036;-75
2021/07/15 09:30:42;;;;;;;1.73;1.05;;;21.00;99.90;;;;;;5011980;28;20072;-74
2021/07/15 09:33:13;;;;;;;1.60;1.10;;;21.30;99.90;;;;;;5012692;28;20030;-76
2021/07/15 09:35:48;;;;;;;3.65;1.00;;;21.30;99.90;;;;;;5011632;28;20038;-75
2021/07/15 09:38:24;;;;;;;1.98;1.38;;;21.70;99.90;;;;;;5011311;28;20492;-77
2021/07/15 09:41:00;;;;;;;2.92;1.73;;;21.80;99.90;;;;;;5012710;28;20391;-75
2021/07/15 09:43:37;;;;;;;1.70;1.13;;;21.40;99.90;;;;;;5012784;28;20042;-74
2021/07/15 09:46:12;;;;;;;2.20;1.17;;;21.70;99.90;;;;;;5011738;28;20049;-74
2021/07/15 09:49:06;;;;;;;2.22;1.45;;;21.10;99.90;;;;;;5012653;28;20132;-75
2021/07/15 09:51:42;;;;;;;2.17;1.50;;;21.20;99.90;;;;;;5012488;28;20552;-75
2021/07/15 09:54:09;;;;;;;2.30;1.30;;;20.80;99.90;;;;;;5012626;28;20517;-75
2021/07/15 09:56:46;;;;;;;2.55;1.70;;;20.90;99.90;;;;;;5012435;28;20037;-74
2021/07/15 09:59:12;;;;;;;2.85;1.70;;;21.10;99.90;;;;;;5011566;28;20129;-77
2021/07/15 10:02:04;;;;;;;2.53;1.70;;;21.10;99.90;;;;;;5011091;28;20017;-74
2021/07/15 10:04:30;;;;;;;2.60;1.70;;;21.20;99.90;;;;;;5012768;28;20509;-74
2021/07/15 10:06:59;;;;;;;2.22;1.40;;;21.30;99.90;;;;;;5012574;28;20034;-75
2021/07/15 10:09:31;;;;;;;1.92;1.20;;;21.40;99.90;;;;;;5010857;28;20034;-75
2021/07/15 10:11:58;;;;;;;2.97;1.80;;;21.10;99.90;;;;;;5011149;28;20045;-73
2021/07/15 10:14:40;;;;;;;2.08;1.65;;;21.20;99.90;;;;;;5011308;28;20034;-75
2021/07/15 10:17:07;;;;;;;2.08;1.30;;;21.40;99.90;;;;;;5011240;28;20038;-73
2021/07/15 10:19:33;;;;;;;1.25;0.80;;;21.30;99.90;;;;;;5012103;28;20030;-73
2021/07/15 10:22:08;;;;;;;1.73;0.90;;;21.50;99.90;;;;;;4995248;28;20459;-73
2021/07/15 10:24:34;;;;;;;2.05;1.10;;;21.20;99.90;;;;;;5013758;28;20045;-74
2021/07/15 10:27:12;;;;;;;4.13;2.20;;;21.00;99.90;;;;;;5014888;28;20061;-75
2021/07/15 10:29:39;;;;;;;2.80;1.67;;;21.10;99.90;;;;;;5014747;28;20053;-73
2021/07/15 10:32:06;;;;;;;1.40;0.90;;;21.20;99.90;;;;;;5015186;28;20080;-73
2021/07/15 10:34:32;;;;;;;2.25;1.20;;;20.70;99.90;;;;;;5014643;28;20117;-74
2021/07/15 10:37:02;;;;;;;5.00;3.00;;;20.50;99.90;;;;;;5015040;28;20048;-74
2021/07/15 10:39:29;;;;;;;4.35;1.27;;;20.50;99.90;;;;;;5015805;28;20061;-74
2021/07/15 10:41:58;;;;;;;2.97;1.33;;;20.40;99.90;;;;;;5014723;28;20407;-74
2021/07/15 10:44:28;;;;;;;2.75;1.58;;;20.40;99.90;;;;;;5014523;28;20058;-74
2021/07/15 10:46:54;;;;;;;3.15;1.85;;;20.50;99.90;;;;;;5015016;28;20030;-74
2021/07/15 10:49:22;;;;;;;3.22;1.20;;;20.60;99.90;;;;;;5014441;28;20043;-74
2021/07/15 10:51:52;;;;;;;2.65;1.58;;;20.50;99.90;;;;;;5014826;28;20092;-74
2021/07/15 10:54:18;;;;;;;3.83;1.02;;;20.50;99.90;;;;;;5015859;28;20122;-74
2021/07/15 10:56:50;;;;;;;2.33;1.52;;;20.70;99.90;;;;;;5015875;28;20040;-74
2021/07/15 10:59:30;;;;;;;2.17;1.30;;;20.40;99.90;;;;;;5014593;28;20041;-74
2021/07/15 11:02:01;;;;;;;2.53;1.58;;;20.40;99.90;;;;;;5015611;28;20033;-74
2021/07/15 11:04:40;;;;;;;1.60;1.02;;;20.60;99.90;;;;;;5015661;28;20037;-74
2021/07/15 11:07:23;;;;;;;2.00;1.33;;;20.90;99.90;;;;;;5015554;28;20034;-74
2021/07/15 11:09:52;;;;;;;2.92;1.25;;;21.00;99.90;;;;;;5030707;28;20042;-74
2021/07/15 11:12:36;;;;;;;4.13;1.13;;;20.80;99.90;;;;;;5015214;28;20108;-73
2021/07/15 11:15:06;;;;;;;2.47;1.20;;;20.90;99.90;;;;;;5015288;28;20038;-73
2021/07/15 11:17:46;;;;;;;2.47;1.13;;;21.40;99.90;;;;;;5015060;28;20454;-74
2021/07/15 11:20:30;;;;;;;2.23;1.30;;;21.70;99.90;;;;;;5014178;28;20069;-74
2021/07/15 11:22:58;;;;;;;3.60;1.15;;;21.80;99.90;;;;;;5015166;28;20041;-73
2021/07/15 11:25:33;;;;;;;2.22;1.27;;;22.30;99.90;;;;;;5015262;28;20033;-73
2021/07/15 11:28:10;;;;;;;1.75;1.10;;;22.60;99.90;;;;;;5015275;28;20386;-73
2021/07/15 11:30:36;;;;;;;1.42;1.00;;;22.20;99.90;;;;;;5015196;28;20037;-74
2021/07/15 11:33:23;;;;;;;1.88;1.20;;;22.20;99.90;;;;;;5014959;28;20394;-74
2021/07/15 11:36:24;;;;;;;2.45;1.05;;;22.70;99.90;;;;;;5014870;28;20376;-73
2021/07/15 11:38:58;;;;;;;1.83;1.00;;;23.10;99.90;;;;;;5014701;28;20475;-74
2021/07/15 11:41:44;;;;;;;1.63;1.00;;;23.50;99.90;;;;;;5013956;28;20152;-73
2021/07/15 11:44:13;;;;;;;1.23;0.65;;;23.70;99.90;;;;;;5013777;28;20037;-74
2021/07/15 11:46:39;;;;;;;1.55;0.90;;;24.30;99.90;;;;;;4997424;28;20061;-74
2021/07/15 11:49:18;;;;;;;2.10;0.88;;;24.40;99.90;;;;;;5013437;28;20040;-74
2021/07/15 11:51:52;;;;;;;1.63;0.80;;;24.30;99.90;;;;;;5014767;28;20045;-74
2021/07/15 11:54:24;;;;;;;0.98;0.63;;;23.40;99.90;;;;;;5030243;28;20084;-74
2021/07/15 11:56:55;;;;;;;0.95;0.55;;;23.40;99.90;;;;;;5029764;28;20483;-74
2021/07/15 11:59:43;;;;;;;1.13;0.60;;;24.10;99.90;;;;;;5014755;28;20060;-73
2021/07/15 12:02:28;;;;;;;1.58;0.80;;;24.80;99.90;;;;;;5014767;28;20089;-74
2021/07/15 12:05:14;;;;;;;2.53;0.70;;;24.90;99.90;;;;;;5014643;28;20037;-74
2021/07/15 12:07:49;;;;;;;2.13;1.00;;;24.70;99.90;;;;;;5014322;28;20125;-74
2021/07/15 12:10:27;;;;;;;1.45;0.80;;;24.70;99.90;;;;;;5012945;28;20072;-74
2021/07/15 12:12:57;;;;;;;1.60;0.60;;;25.00;99.90;;;;;;5013876;28;20395;-75
2021/07/15 12:15:25;;;;;;;1.13;0.70;;;25.30;99.90;;;;;;5012935;28;20109;-74
2021/07/15 12:18:10;;;;;;;1.30;0.70;;;25.00;99.90;;;;;;5013074;28;20030;-74
2021/07/15 12:20:44;;;;;;;2.35;1.10;;;25.40;99.90;;;;;;5012806;28;20029;-74
2021/07/15 12:23:32;;;;;;;1.00;0.80;;;24.20;99.90;;;;;;5012792;28;20483;-74
2021/07/15 12:26:00;;;;;;;1.23;0.70;;;24.60;99.90;;;;;;5029622;28;20124;-74
2021/07/15 12:28:29;;;;;;;1.20;0.70;;;25.10;99.90;;;;;;5012648;28;20454;-74
2021/07/15 12:30:58;;;;;;;2.63;0.70;;;25.40;99.90;;;;;;5014022;28;20121;-74
2021/07/15 12:33:40;;;;;;;1.27;0.88;;;25.30;99.90;;;;;;5012596;28;20531;-74
2021/07/15 12:36:16;;;;;;;1.45;0.95;;;25.20;99.90;;;;;;5012706;28;20040;-74
2021/07/15 12:38:49;;;;;;;1.40;0.65;;;24.80;99.90;;;;;;5012545;28;20033;-74
2021/07/15 12:41:17;;;;;;;1.88;1.08;;;24.60;99.90;;;;;;5013950;28;20096;-74
2021/07/15 12:43:45;;;;;;;1.25;0.82;;;24.80;99.90;;;;;;5013809;28;20053;-74
2021/07/15 12:46:15;;;;;;;0.75;0.65;;;24.80;99.90;;;;;;5012238;28;20135;-74
2021/07/15 12:48:44;;;;;;;1.17;0.73;;;24.50;99.90;;;;;;5013394;28;20033;-73
2021/07/15 12:51:12;;;;;;;1.02;0.60;;;24.40;99.90;;;;;;5012347;28;20026;-73
2021/07/15 12:53:42;;;;;;;2.78;0.65;;;24.30;99.90;;;;;;5013325;28;20041;-74
2021/07/15 12:56:08;;;;;;;2.45;0.60;;;24.10;99.90;;;;;;5013861;28;20475;-74
2021/07/15 12:58:34;;;;;;;1.50;0.95;;;24.20;99.90;;;;;;5012001;28;20065;-74
2021/07/15 13:01:05;;;;;;;4.53;4.00;;;24.30;99.90;;;;;;5013455;28;20064;-73
2021/07/15 13:03:32;;;;;;;2.80;1.90;;;24.50;99.90;;;;;;5012073;28;20109;-73
2021/07/15 13:05:59;;;;;;;0.75;0.50;;;24.60;99.90;;;;;;4995898;28;20034;-74
2021/07/15 13:08:40;;;;;;;1.13;0.60;;;24.60;99.90;;;;;;5012328;28;20037;-73